Time;durP1;ratioP1;P1;durP2;ratioP2;P2;SDS_P1;SDS_P2;PMS_P1;PMS_P2;Temp;Humidity;BMP_temperature;BMP_pressure;BME280_temperature;BME280_humidity;BME280_pressure;Samples;Min_cycle;Max_cycle;Signal;HPM_P1;HPM_P2
2023/03/29 00:00:36;;;;;;;7.80;2.27;;;3.30;99.90;;;;;;4136951;28;20899;-76
2023/03/29 00:02:38;;;;;;;7.20;2.60;;;3.30;99.90;;;;;;4137629;28;21041;-76
2023/03/29 00:04:41;;;;;;;7.17;2.43;;;3.30;99.90;;;;;;4152670;28;20465;-76
2023/03/29 00:06:46;;;;;;;6.10;2.43;;;3.30;99.90;;;;;;4139730;28;20468;-76
2023/03/29 00:08:52;;;;;;;6.10;2.53;;;3.30;99.90;;;;;;4141432;28;20616;-76
2023/03/29 00:10:57;;;;;;;7.07;3.20;;;3.20;99.90;;;;;;4139679;28;20470;-76
2023/03/29 00:12:59;;;;;;;5.13;2.40;;;3.20;99.90;;;;;;4137837;28;20455;-76
2023/03/29 00:15:01;;;;;;;6.97;2.80;;;3.20;99.90;;;;;;4140601;28;20455;-75
2023/03/29 00:17:03;;;;;;;6.17;2.73;;;3.20;99.90;;;;;;4144299;28;20486;-75
2023/03/29 00:19:05;;;;;;;7.27;2.83;;;3.20;99.90;;;;;;4137915;28;20587;-76
2023/03/29 00:21:07;;;;;;;6.63;2.60;;;3.20;99.90;;;;;;4159442;28;20450;-75
2023/03/29 00:23:10;;;;;;;6.17;2.73;;;3.20;99.90;;;;;;4145650;28;20602;-76
2023/03/29 00:25:13;;;;;;;8.27;2.77;;;3.20;99.90;;;;;;4142648;28;20546;-75
2023/03/29 00:27:15;;;;;;;6.70;2.73;;;3.20;99.90;;;;;;4139725;28;20446;-76
2023/03/29 00:29:17;;;;;;;10.90;3.00;;;3.20;99.90;;;;;;4141687;28;20958;-76
2023/03/29 00:31:19;;;;;;;6.20;2.33;;;3.20;99.90;;;;;;4139608;28;20456;-76
2023/03/29 00:33:21;;;;;;;9.20;2.83;;;3.20;99.90;;;;;;4154358;28;20478;-75
2023/03/29 00:35:23;;;;;;;5.23;2.40;;;3.10;99.90;;;;;;4138500;28;20942;-76
2023/03/29 00:37:25;;;;;;;7.17;2.70;;;3.20;99.90;;;;;;4139866;28;20558;-76
2023/03/29 00:39:30;;;;;;;4.93;2.30;;;3.10;99.90;;;;;;4141419;28;20486;-76
2023/03/29 00:41:32;;;;;;;6.83;2.63;;;3.10;99.90;;;;;;4141257;28;20471;-76
2023/03/29 00:43:55;;;;;;;7.80;3.10;;;3.10;99.90;;;;;;4142360;28;20573;-76
2023/03/29 00:45:57;;;;;;;8.07;3.10;;;3.10;99.90;;;;;;4138796;28;20455;-75
2023/03/29 00:48:02;;;;;;;7.13;3.20;;;3.10;99.90;;;;;;4139973;28;20565;-76
2023/03/29 00:50:08;;;;;;;5.93;2.50;;;3.10;99.90;;;;;;4140237;28;20455;-76
2023/03/29 00:52:10;;;;;;;7.23;3.00;;;3.10;99.90;;;;;;4138401;28;20455;-76
2023/03/29 00:54:17;;;;;;;7.37;2.50;;;3.10;99.90;;;;;;4141273;28;20483;-76
2023/03/29 00:56:25;;;;;;;7.33;3.00;;;3.10;99.90;;;;;;4138103;28;20470;-76
2023/03/29 00:58:31;;;;;;;7.50;2.73;;;3.10;99.90;;;;;;4139718;28;20963;-76
2023/03/29 01:00:36;;;;;;;7.10;2.63;;;3.10;99.90;;;;;;4138698;28;20452;-75
2023/03/29 01:02:42;;;;;;;5.33;2.50;;;3.10;99.90;;;;;;4139440;28;20546;-76
2023/03/29 01:04:48;;;;;;;6.33;2.73;;;3.10;99.90;;;;;;4138676;28;20559;-75
2023/03/29 01:06:56;;;;;;;5.13;2.70;;;3.10;99.90;;;;;;4140927;28;20537;-76
2023/03/29 01:09:01;;;;;;;7.57;2.63;;;3.10;99.90;;;;;;4137068;28;20550;-75
2023/03/29 01:11:08;;;;;;;7.47;2.53;;;3.10;99.90;;;;;;4140905;28;20474;-75
2023/03/29 01:13:15;;;;;;;5.80;2.50;;;3.00;99.90;;;;;;4138645;28;20499;-75
2023/03/29 01:15:20;;;;;;;6.60;2.27;;;3.00;99.90;;;;;;4140369;28;20467;-75
2023/03/29 01:17:24;;;;;;;5.37;2.53;;;3.10;99.90;;;;;;4140490;28;20463;-76
2023/03/29 01:19:31;;;;;;;5.93;2.30;;;3.00;99.90;;;;;;4140370;28;20581;-76
2023/03/29 01:21:39;;;;;;;9.90;2.67;;;3.00;99.90;;;;;;4140843;28;20474;-76
2023/03/29 01:24:05;;;;;;;6.33;2.27;;;3.00;99.90;;;;;;4139978;28;20487;-76
2023/03/29 01:26:18;;;;;;;8.03;2.40;;;3.00;99.90;;;;;;4137760;28;20444;-76
2023/03/29 01:28:27;;;;;;;4.33;2.20;;;3.00;99.90;;;;;;4143707;28;20558;-75
2023/03/29 01:30:33;;;;;;;6.03;2.23;;;3.00;99.90;;;;;;4142807;28;20463;-76
2023/03/29 01:32:40;;;;;;;6.23;2.30;;;3.00;99.90;;;;;;4138685;28;20462;-76
2023/03/29 01:34:48;;;;;;;6.97;2.57;;;3.00;99.90;;;;;;4138147;28;21316;-76
2023/03/29 01:36:53;;;;;;;6.70;2.30;;;3.00;99.90;;;;;;4139308;28;20553;-75
2023/03/29 01:38:57;;;;;;;7.07;1.87;;;3.10;99.90;;;;;;4142002;28;20475;-75
2023/03/29 01:41:02;;;;;;;6.23;2.27;;;3.00;99.90;;;;;;4136986;28;20558;-76
2023/03/29 01:43:12;;;;;;;9.13;2.90;;;3.00;99.90;;;;;;4139426;28;20502;-76
2023/03/29 01:45:22;;;;;;;5.30;2.27;;;3.00;99.90;;;;;;4141251;28;20557;-76
2023/03/29 01:47:30;;;;;;;7.80;2.23;;;3.00;99.90;;;;;;4147157;28;20605;-76
2023/03/29 01:49:38;;;;;;;7.13;2.50;;;3.00;99.90;;;;;;4144393;28;20461;-76
2023/03/29 01:51:43;;;;;;;9.63;2.90;;;3.00;99.90;;;;;;4137425;28;20890;-75
2023/03/29 01:53:50;;;;;;;6.63;2.50;;;3.00;99.90;;;;;;4140881;28;20514;-75
2023/03/29 01:55:55;;;;;;;9.50;2.60;;;3.00;99.90;;;;;;4137887;28;20456;-76
2023/03/29 01:58:00;;;;;;;6.93;2.00;;;3.00;99.90;;;;;;4139676;28;20466;-76
2023/03/29 02:00:13;;;;;;;5.30;2.27;;;3.00;99.90;;;;;;4138988;28;20594;-75
2023/03/29 02:02:20;;;;;;;9.13;2.30;;;3.00;99.90;;;;;;4136815;28;20479;-76
2023/03/29 02:04:26;;;;;;;5.17;2.20;;;3.00;99.90;;;;;;4137945;28;20475;-75
2023/03/29 02:06:31;;;;;;;5.80;2.20;;;3.00;99.90;;;;;;4136849;28;20467;-76
2023/03/29 02:08:33;;;;;;;5.17;2.27;;;3.00;99.90;;;;;;4139268;28;20467;-76
2023/03/29 02:10:36;;;;;;;5.30;2.17;;;3.00;99.90;;;;;;4138967;28;20462;-75
2023/03/29 02:12:38;;;;;;;3.97;1.97;;;3.00;99.90;;;;;;4138009;28;21014;-76
2023/03/29 02:14:40;;;;;;;7.67;2.03;;;3.00;99.90;;;;;;4137452;28;20534;-76
2023/03/29 02:16:44;;;;;;;6.63;2.30;;;3.00;99.90;;;;;;4139081;28;20466;-76
2023/03/29 02:18:51;;;;;;;6.03;2.00;;;2.90;99.90;;;;;;4144314;28;20509;-74
2023/03/29 02:20:54;;;;;;;5.20;1.90;;;3.00;99.90;;;;;;4144339;28;20488;-76
2023/03/29 02:23:03;;;;;;;3.77;1.80;;;3.00;99.90;;;;;;4138396;28;20455;-76
2023/03/29 02:25:08;;;;;;;4.97;1.90;;;3.00;99.90;;;;;;4141836;28;20455;-75
2023/03/29 02:27:10;;;;;;;4.63;2.07;;;3.00;99.90;;;;;;4146636;28;20471;-75
2023/03/29 02:29:13;;;;;;;5.60;2.30;;;3.00;99.90;;;;;;4140673;28;20458;-75
2023/03/29 02:31:21;;;;;;;6.73;2.43;;;3.00;99.90;;;;;;4146438;28;20465;-76
2023/03/29 02:33:31;;;;;;;7.97;2.07;;;3.00;99.90;;;;;;4135804;28;20494;-75
2023/03/29 02:35:40;;;;;;;7.67;2.13;;;3.00;99.90;;;;;;4140487;28;20520;-75
2023/03/29 02:37:48;;;;;;;6.80;2.10;;;3.00;99.90;;;;;;4138276;28;20546;-75
2023/03/29 02:39:51;;;;;;;6.53;2.07;;;3.00;99.90;;;;;;4148604;28;20485;-75
2023/03/29 02:41:56;;;;;;;5.00;1.97;;;3.00;99.90;;;;;;4143214;28;20443;-75
2023/03/29 02:43:59;;;;;;;7.57;2.00;;;3.00;99.90;;;;;;4145707;28;20988;-75
2023/03/29 02:46:03;;;;;;;7.07;1.80;;;3.00;99.90;;;;;;4141447;28;21169;-75
2023/03/29 02:48:08;;;;;;;3.97;1.70;;;3.00;99.90;;;;;;4144221;28;20479;-76
2023/03/29 02:50:11;;;;;;;5.77;1.80;;;3.00;99.90;;;;;;4144926;28;20454;-75
2023/03/29 02:52:16;;;;;;;5.00;2.00;;;3.00;99.90;;;;;;4141361;28;20487;-75
2023/03/29 02:54:21;;;;;;;5.07;1.97;;;3.00;99.90;;;;;;4140462;28;20479;-75
2023/03/29 02:56:23;;;;;;;7.77;2.10;;;3.00;99.90;;;;;;4140118;28;20455;-75
2023/03/29 02:58:27;;;;;;;6.47;1.80;;;3.00;99.90;;;;;;4156119;28;20493;-75
2023/03/29 03:00:29;;;;;;;4.13;2.00;;;3.00;99.90;;;;;;4141068;28;20570;-74
2023/03/29 03:02:32;;;;;;;6.40;1.87;;;3.00;99.90;;;;;;4142148;28;20811;-75
2023/03/29 03:04:34;;;;;;;4.60;1.87;;;3.00;99.90;;;;;;4145632;28;20473;-74
2023/03/29 03:06:36;;;;;;;5.87;1.70;;;3.10;99.90;;;;;;4138766;28;20451;-75
2023/03/29 03:08:39;;;;;;;6.73;1.90;;;3.00;99.90;;;;;;4139330;28;20961;-75
2023/03/29 03:10:41;;;;;;;4.83;1.80;;;3.00;99.90;;;;;;4139925;28;20474;-76
2023/03/29 03:12:43;;;;;;;6.83;2.13;;;3.00;99.90;;;;;;4134163;28;20822;-75
2023/03/29 03:14:45;;;;;;;7.93;2.20;;;3.00;99.90;;;;;;4137671;28;20529;-75
2023/03/29 03:16:47;;;;;;;6.47;1.70;;;3.00;99.90;;;;;;4137415;28;20497;-76
2023/03/29 03:18:50;;;;;;;7.77;2.07;;;2.90;99.90;;;;;;4139263;28;20451;-77
2023/03/29 03:20:56;;;;;;;4.40;2.00;;;3.00;99.90;;;;;;4147800;28;21062;-74
2023/03/29 03:22:58;;;;;;;7.03;1.60;;;3.00;99.90;;;;;;4138301;28;20804;-74
2023/03/29 03:25:01;;;;;;;4.80;1.67;;;3.00;99.90;;;;;;4141846;28;20530;-75
2023/03/29 03:27:03;;;;;;;5.47;1.70;;;3.10;99.90;;;;;;4139621;28;20451;-74
2023/03/29 03:29:05;;;;;;;3.83;2.13;;;3.10;99.90;;;;;;4139385;28;20491;-77
2023/03/29 03:31:08;;;;;;;6.43;1.87;;;3.10;99.90;;;;;;4143438;28;20937;-75
2023/03/29 03:33:10;;;;;;;5.60;2.00;;;3.10;99.90;;;;;;4138337;28;20536;-77
2023/03/29 03:35:12;;;;;;;5.80;2.00;;;3.10;99.90;;;;;;4136790;28;20455;-75
2023/03/29 03:37:14;;;;;;;5.97;1.93;;;3.10;99.90;;;;;;4142445;28;20452;-75
2023/03/29 03:39:17;;;;;;;5.83;1.80;;;3.10;99.90;;;;;;4138968;28;20502;-76
2023/03/29 03:41:21;;;;;;;8.67;1.70;;;3.10;99.90;;;;;;4141190;28;21034;-74
2023/03/29 03:43:23;;;;;;;3.70;1.60;;;3.10;99.90;;;;;;4152247;28;20571;-75
2023/03/29 03:45:25;;;;;;;4.60;1.70;;;3.10;99.90;;;;;;4140797;28;20506;-76
2023/03/29 03:47:28;;;;;;;6.57;2.10;;;3.10;99.90;;;;;;4137622;28;20982;-75
2023/03/29 03:49:31;;;;;;;8.40;2.00;;;3.10;99.90;;;;;;4136085;28;21082;-75
2023/03/29 03:51:33;;;;;;;4.80;1.70;;;3.10;99.90;;;;;;4139464;28;20549;-75
2023/03/29 03:53:35;;;;;;;7.20;2.97;;;3.10;99.90;;;;;;4134219;28;20479;-75
2023/03/29 03:55:43;;;;;;;13.20;4.77;;;3.10;99.90;;;;;;4139009;28;20505;-76
2023/03/29 03:57:46;;;;;;;7.77;3.20;;;3.10;99.90;;;;;;4134801;28;20455;-81
2023/03/29 03:59:48;;;;;;;4.30;1.93;;;3.20;99.90;;;;;;4155945;28;20455;-75
2023/03/29 04:01:51;;;;;;;9.13;2.00;;;3.20;99.90;;;;;;4143373;28;20455;-75
2023/03/29 04:03:53;;;;;;;6.13;1.70;;;3.20;99.90;;;;;;4138548;28;21055;-76
2023/03/29 04:05:58;;;;;;;10.03;1.73;;;3.20;99.90;;;;;;4153634;28;20458;-76
2023/03/29 04:08:00;;;;;;;4.17;1.90;;;3.20;99.90;;;;;;4135309;28;20446;-75
2023/03/29 04:10:02;;;;;;;4.30;1.57;;;3.20;99.90;;;;;;4140397;28;20529;-76
2023/03/29 04:12:04;;;;;;;3.07;1.57;;;3.20;99.90;;;;;;4138985;28;20550;-75
2023/03/29 04:14:08;;;;;;;5.43;1.87;;;3.30;99.90;;;;;;4142290;28;20999;-75
2023/03/29 04:16:10;;;;;;;3.90;1.60;;;3.30;99.90;;;;;;4139365;28;20451;-76
2023/03/29 04:18:14;;;;;;;4.50;1.73;;;3.30;99.90;;;;;;4138373;28;20896;-75
2023/03/29 04:20:16;;;;;;;7.83;2.40;;;3.30;99.90;;;;;;4140768;28;20488;-76
2023/03/29 04:22:18;;;;;;;5.37;1.73;;;3.30;99.90;;;;;;4136394;28;20458;-75
2023/03/29 04:24:20;;;;;;;6.00;2.13;;;3.40;99.90;;;;;;4148581;28;20471;-76
2023/03/29 04:26:21;;;;;;;3.93;1.70;;;3.40;99.90;;;;;;4141409;28;20486;-75
2023/03/29 04:28:23;;;;;;;8.43;2.20;;;3.40;99.90;;;;;;4141797;28;20459;-75
2023/03/29 04:30:27;;;;;;;6.10;1.97;;;3.40;99.90;;;;;;4142249;28;20533;-76
2023/03/29 04:32:29;;;;;;;6.27;1.90;;;3.40;99.90;;;;;;4140031;28;20459;-75
2023/03/29 04:34:31;;;;;;;3.37;1.80;;;3.40;99.90;;;;;;4143401;28;20569;-75
2023/03/29 04:36:33;;;;;;;5.07;1.80;;;3.40;99.90;;;;;;4144843;28;20451;-76
2023/03/29 04:38:36;;;;;;;4.73;1.60;;;3.40;99.90;;;;;;4141423;28;20480;-74
2023/03/29 04:40:38;;;;;;;3.10;1.67;;;3.40;99.90;;;;;;4142098;28;20484;-75
2023/03/29 04:42:43;;;;;;;3.93;1.47;;;3.50;99.90;;;;;;4140147;28;20543;-75
2023/03/29 04:44:45;;;;;;;2.77;1.60;;;3.50;99.90;;;;;;4141641;28;20510;-75
2023/03/29 04:46:48;;;;;;;4.50;1.80;;;3.50;99.90;;;;;;4143393;28;20547;-75
2023/03/29 04:48:51;;;;;;;6.50;2.30;;;3.40;99.90;;;;;;4146369;28;20516;-75
2023/03/29 04:50:54;;;;;;;5.57;1.73;;;3.50;99.90;;;;;;4138518;28;20494;-76
2023/03/29 04:52:56;;;;;;;6.00;2.40;;;3.50;99.90;;;;;;4146713;28;21068;-76
2023/03/29 04:54:57;;;;;;;8.57;3.17;;;3.50;99.90;;;;;;4143524;28;20470;-75
2023/03/29 04:57:00;;;;;;;9.23;2.63;;;3.50;99.90;;;;;;4143723;28;20461;-75
2023/03/29 04:59:02;;;;;;;5.33;2.30;;;3.50;99.90;;;;;;4139939;28;20467;-75
2023/03/29 05:01:04;;;;;;;3.93;2.07;;;3.50;99.90;;;;;;4148942;28;20475;-77
2023/03/29 05:03:10;;;;;;;5.10;1.70;;;3.70;99.90;;;;;;4143619;28;20497;-76
2023/03/29 05:05:12;;;;;;;6.77;1.93;;;3.50;99.90;;;;;;4146137;28;20438;-76
2023/03/29 05:07:16;;;;;;;5.50;1.87;;;3.50;99.90;;;;;;4142738;28;20451;-76
2023/03/29 05:09:18;;;;;;;5.20;2.13;;;3.60;99.90;;;;;;4143440;28;20486;-76
2023/03/29 05:11:23;;;;;;;3.60;2.37;;;3.60;99.90;;;;;;4144429;28;20455;-76
2023/03/29 05:13:25;;;;;;;5.07;1.70;;;3.60;99.90;;;;;;4147974;28;20487;-75
2023/03/29 05:15:27;;;;;;;6.40;2.10;;;3.60;99.90;;;;;;4142410;28;20891;-76
2023/03/29 05:17:30;;;;;;;5.23;1.90;;;3.60;99.90;;;;;;4142254;28;20497;-75
2023/03/29 05:19:35;;;;;;;5.93;2.33;;;3.70;99.90;;;;;;4142466;28;20492;-76
2023/03/29 05:21:37;;;;;;;5.70;2.30;;;3.70;99.90;;;;;;4141332;28;20525;-76
2023/03/29 05:23:39;;;;;;;4.97;2.20;;;3.70;99.90;;;;;;4140417;28;20473;-76
2023/03/29 05:25:42;;;;;;;9.27;2.30;;;3.70;99.90;;;;;;4144076;28;20451;-76
2023/03/29 05:27:44;;;;;;;4.13;2.03;;;3.70;99.90;;;;;;4148608;28;21140;-76
2023/03/29 05:29:46;;;;;;;6.63;2.53;;;3.70;99.90;;;;;;4144895;28;20473;-76
2023/03/29 05:31:48;;;;;;;8.03;3.00;;;3.70;99.90;;;;;;4140839;28;20458;-76
2023/03/29 05:33:51;;;;;;;7.63;2.27;;;3.80;99.90;;;;;;4142839;28;20537;-76
2023/03/29 05:36:00;;;;;;;7.03;2.10;;;3.80;99.90;;;;;;4140869;28;20517;-76
2023/03/29 05:38:05;;;;;;;4.73;2.07;;;3.80;99.90;;;;;;4148491;28;20487;-76
2023/03/29 05:40:08;;;;;;;4.10;1.90;;;3.90;99.90;;;;;;4148680;28;20481;-76
2023/03/29 05:42:12;;;;;;;6.17;2.00;;;3.80;99.90;;;;;;4141369;28;20578;-76
2023/03/29 05:44:14;;;;;;;11.13;4.37;;;3.90;99.90;;;;;;4150355;28;20479;-76
2023/03/29 05:46:16;;;;;;;9.83;3.47;;;3.90;99.90;;;;;;4140674;28;20455;-75
2023/03/29 05:48:18;;;;;;;7.00;2.67;;;3.90;99.90;;;;;;4139730;28;20452;-79
2023/03/29 05:50:20;;;;;;;5.03;2.40;;;3.90;99.90;;;;;;4150086;28;20924;-81
2023/03/29 05:52:23;;;;;;;4.70;2.10;;;4.00;99.90;;;;;;4150635;28;21250;-78
2023/03/29 05:54:26;;;;;;;4.37;2.40;;;4.00;99.90;;;;;;4146235;28;20487;-76
2023/03/29 05:56:28;;;;;;;5.47;2.27;;;4.00;99.90;;;;;;4142543;28;20474;-75
2023/03/29 05:58:30;;;;;;;3.07;2.00;;;4.00;99.90;;;;;;4146372;28;20553;-76
2023/03/29 06:00:35;;;;;;;4.03;1.93;;;4.00;99.90;;;;;;4144070;28;20505;-76
2023/03/29 06:02:37;;;;;;;5.53;2.43;;;4.00;99.90;;;;;;4147912;28;20440;-76
2023/03/29 06:04:39;;;;;;;4.63;1.80;;;4.00;99.90;;;;;;4145858;28;20506;-76
2023/03/29 06:06:41;;;;;;;4.10;2.30;;;4.10;99.90;;;;;;4145654;28;20488;-75
2023/03/29 06:08:45;;;;;;;4.07;2.30;;;4.10;99.90;;;;;;4137735;28;20873;-76
2023/03/29 06:10:47;;;;;;;4.43;2.03;;;4.10;99.90;;;;;;4158082;28;20455;-75
2023/03/29 06:12:50;;;;;;;4.13;2.17;;;4.10;99.90;;;;;;4143017;28;20468;-76
2023/03/29 06:14:52;;;;;;;5.93;2.10;;;4.20;99.90;;;;;;4142802;28;20459;-75
2023/03/29 06:16:54;;;;;;;6.37;2.30;;;4.20;99.90;;;;;;4142593;28;20824;-75
2023/03/29 06:18:56;;;;;;;4.40;2.40;;;4.30;99.90;;;;;;4144278;28;20462;-76
2023/03/29 06:20:58;;;;;;;7.30;2.73;;;4.30;99.90;;;;;;4155570;28;20534;-76
2023/03/29 06:22:59;;;;;;;5.33;2.30;;;4.30;99.90;;;;;;4143811;28;20881;-76
2023/03/29 06:25:03;;;;;;;7.43;2.83;;;4.30;99.90;;;;;;4139236;28;20491;-76
2023/03/29 06:27:05;;;;;;;5.67;2.57;;;4.30;99.90;;;;;;4137476;28;20451;-76
2023/03/29 06:29:08;;;;;;;9.47;2.90;;;4.30;99.90;;;;;;4143204;28;20574;-75
2023/03/29 06:31:11;;;;;;;6.20;2.77;;;4.30;99.90;;;;;;4142272;28;20467;-75
2023/03/29 06:33:14;;;;;;;6.80;2.83;;;4.40;99.90;;;;;;4140709;28;20467;-75
2023/03/29 06:35:17;;;;;;;6.37;3.00;;;4.40;99.90;;;;;;4142942;28;21109;-76
2023/03/29 06:37:19;;;;;;;7.03;2.53;;;4.40;99.90;;;;;;4144781;28;20495;-75
2023/03/29 06:39:20;;;;;;;7.50;3.23;;;4.50;99.90;;;;;;4142710;28;20463;-76
2023/03/29 06:41:25;;;;;;;7.03;2.90;;;4.40;99.90;;;;;;4157659;28;20532;-76
2023/03/29 06:43:26;;;;;;;6.07;2.80;;;4.40;99.90;;;;;;4138451;28;20480;-76
2023/03/29 06:45:31;;;;;;;5.50;3.10;;;4.50;99.90;;;;;;4142304;28;20500;-76
2023/03/29 06:47:33;;;;;;;5.53;2.90;;;4.50;99.90;;;;;;4137638;28;20465;-75
2023/03/29 06:49:35;;;;;;;10.13;3.53;;;4.50;99.90;;;;;;4139463;28;20825;-76
2023/03/29 06:51:38;;;;;;;8.60;3.50;;;4.60;99.90;;;;;;4138760;28;20448;-75
2023/03/29 06:53:40;;;;;;;6.10;3.17;;;4.60;99.90;;;;;;4136525;28;20472;-76
2023/03/29 06:55:42;;;;;;;7.97;3.40;;;4.60;99.90;;;;;;4147197;28;20495;-76
2023/03/29 06:57:46;;;;;;;7.00;3.13;;;4.70;99.90;;;;;;4141586;28;20875;-76
2023/03/29 06:59:48;;;;;;;6.53;3.53;;;4.70;99.90;;;;;;4139192;28;20805;-76
2023/03/29 07:01:52;;;;;;;6.80;3.80;;;4.70;99.90;;;;;;4136612;28;20611;-75
2023/03/29 07:03:56;;;;;;;9.10;3.67;;;4.70;99.90;;;;;;4137842;28;20949;-75
2023/03/29 07:06:02;;;;;;;5.77;3.57;;;4.80;99.90;;;;;;4145337;28;20546;-75
2023/03/29 07:08:12;;;;;;;6.27;3.50;;;4.80;99.90;;;;;;4139004;28;20981;-75
2023/03/29 07:10:15;;;;;;;6.07;3.43;;;4.80;99.90;;;;;;4140342;28;20452;-75
2023/03/29 07:12:17;;;;;;;6.67;4.07;;;4.90;99.90;;;;;;4139408;28;20535;-74
2023/03/29 07:14:20;;;;;;;8.00;4.03;;;4.90;99.90;;;;;;4140159;28;20488;-75
2023/03/29 07:16:22;;;;;;;6.17;3.90;;;4.90;99.90;;;;;;4137745;28;20881;-73
2023/03/29 07:18:25;;;;;;;11.20;3.77;;;4.90;99.90;;;;;;4137094;28;20461;-71
2023/03/29 07:20:27;;;;;;;10.43;4.60;;;5.00;99.90;;;;;;4135905;28;20491;-74
2023/03/29 07:22:29;;;;;;;8.10;3.73;;;5.00;99.90;;;;;;4134453;28;20588;-74
2023/03/29 07:24:31;;;;;;;6.73;3.90;;;5.00;99.90;;;;;;4141096;28;20532;-75
2023/03/29 07:26:33;;;;;;;6.90;4.50;;;5.10;99.90;;;;;;4135393;28;20477;-75
2023/03/29 07:28:36;;;;;;;5.93;3.73;;;5.10;99.90;;;;;;4138034;28;20456;-75
2023/03/29 07:30:39;;;;;;;8.50;3.90;;;5.20;99.90;;;;;;4134710;28;20461;-75
2023/03/29 07:32:43;;;;;;;7.87;4.20;;;5.20;99.90;;;;;;4141569;28;20453;-74
2023/03/29 07:34:45;;;;;;;9.63;4.53;;;5.30;99.90;;;;;;4140425;28;20607;-75
2023/03/29 07:36:47;;;;;;;8.10;4.03;;;5.30;99.90;;;;;;4140179;28;21178;-75
2023/03/29 07:38:48;;;;;;;7.77;4.20;;;5.30;99.90;;;;;;4135498;28;20512;-75
2023/03/29 07:40:52;;;;;;;7.90;4.20;;;5.40;99.90;;;;;;4142368;28;21273;-74
2023/03/29 07:42:56;;;;;;;9.30;4.80;;;5.40;99.90;;;;;;4131867;28;20475;-75
2023/03/29 07:44:58;;;;;;;10.83;4.23;;;5.40;99.90;;;;;;4132983;28;21311;-75
2023/03/29 07:47:04;;;;;;;10.43;4.30;;;5.50;99.90;;;;;;4136228;28;20515;-74
2023/03/29 07:49:07;;;;;;;8.90;4.60;;;5.50;99.90;;;;;;4138622;28;20482;-75
2023/03/29 07:51:08;;;;;;;9.57;4.83;;;5.50;99.90;;;;;;4135782;28;20451;-74
2023/03/29 07:53:11;;;;;;;7.70;3.97;;;5.50;99.90;;;;;;4137274;28;20981;-75
2023/03/29 07:55:14;;;;;;;6.90;4.07;;;5.60;99.90;;;;;;4136785;28;20450;-74
2023/03/29 07:57:16;;;;;;;6.80;4.03;;;5.60;99.90;;;;;;4135357;28;20529;-75
2023/03/29 07:59:18;;;;;;;9.07;4.67;;;5.60;99.90;;;;;;4145108;28;20482;-75
2023/03/29 08:01:20;;;;;;;9.40;4.30;;;5.70;99.90;;;;;;4142175;28;20500;-74
2023/03/29 08:03:23;;;;;;;7.70;4.10;;;5.70;99.90;;;;;;4153728;28;20527;-74
2023/03/29 08:05:25;;;;;;;7.07;4.33;;;5.70;99.90;;;;;;4136921;28;20978;-74
2023/03/29 08:07:28;;;;;;;7.57;4.17;;;5.70;99.90;;;;;;4141068;28;20490;-74
2023/03/29 08:09:30;;;;;;;8.83;4.10;;;5.80;99.90;;;;;;4141115;28;20465;-74
2023/03/29 08:11:33;;;;;;;9.13;4.77;;;5.80;99.90;;;;;;4142040;28;20500;-74
2023/03/29 08:13:35;;;;;;;9.17;4.70;;;5.90;99.90;;;;;;4142919;28;20474;-74
2023/03/29 08:15:38;;;;;;;9.07;4.77;;;6.00;99.90;;;;;;4137156;28;20457;-73
2023/03/29 08:17:41;;;;;;;10.83;4.70;;;6.00;99.90;;;;;;4156657;28;20512;-74
2023/03/29 08:19:44;;;;;;;7.87;4.37;;;6.00;99.90;;;;;;4141424;28;20505;-74
2023/03/29 08:21:47;;;;;;;9.23;4.47;;;6.10;99.90;;;;;;4140411;28;20493;-74
2023/03/29 08:23:49;;;;;;;11.93;4.50;;;6.10;99.90;;;;;;4143813;28;20821;-74
2023/03/29 08:25:51;;;;;;;8.77;4.30;;;6.10;99.90;;;;;;4136221;28;20454;-75
2023/03/29 08:27:53;;;;;;;9.80;4.57;;;6.20;99.90;;;;;;4140465;28;20545;-74
2023/03/29 08:29:55;;;;;;;9.20;4.30;;;6.20;99.90;;;;;;4136927;28;20465;-74
2023/03/29 08:31:58;;;;;;;10.50;4.17;;;6.20;99.90;;;;;;4144838;28;20481;-74
2023/03/29 08:34:00;;;;;;;11.50;5.17;;;6.30;99.90;;;;;;4141194;28;20562;-74
2023/03/29 08:36:04;;;;;;;15.30;4.83;;;6.40;99.90;;;;;;4140960;28;20561;-74
2023/03/29 08:38:07;;;;;;;6.37;4.07;;;6.40;99.90;;;;;;4142673;28;20469;-74
2023/03/29 08:40:16;;;;;;;8.20;4.00;;;6.50;99.90;;;;;;4140654;28;20987;-74
2023/03/29 08:42:38;;;;;;;7.70;4.27;;;6.60;99.90;;;;;;4154123;28;20509;-74
2023/03/29 08:44:53;;;;;;;6.60;4.10;;;6.60;99.90;;;;;;4141206;28;20499;-75
2023/03/29 08:47:05;;;;;;;7.57;4.03;;;6.70;99.90;;;;;;4139112;28;20478;-75
2023/03/29 08:49:10;;;;;;;9.00;4.47;;;6.80;99.90;;;;;;4141430;28;20455;-75
2023/03/29 08:51:20;;;;;;;9.27;4.60;;;6.90;99.90;;;;;;4140864;28;20446;-76
2023/03/29 08:53:27;;;;;;;7.67;4.40;;;6.90;99.90;;;;;;4138385;28;21218;-75
2023/03/29 08:55:33;;;;;;;8.57;4.07;;;6.90;99.90;;;;;;4141445;28;20521;-75
2023/03/29 08:57:44;;;;;;;7.63;4.30;;;6.90;99.90;;;;;;4142337;28;20469;-75
2023/03/29 08:59:49;;;;;;;8.20;4.53;;;6.90;99.90;;;;;;4138978;28;20745;-75
2023/03/29 09:01:53;;;;;;;8.00;4.10;;;7.00;99.90;;;;;;4139407;28;20480;-75
2023/03/29 09:04:04;;;;;;;7.77;4.20;;;7.00;99.90;;;;;;4138086;28;21546;-75
2023/03/29 09:06:07;;;;;;;7.00;4.30;;;7.10;99.90;;;;;;4142678;28;20541;-74
2023/03/29 09:08:15;;;;;;;7.30;4.00;;;7.10;99.90;;;;;;4138937;28;21058;-74
2023/03/29 09:10:21;;;;;;;8.23;4.73;;;7.10;99.90;;;;;;4141323;28;20454;-74
2023/03/29 09:12:33;;;;;;;7.20;4.63;;;7.10;99.90;;;;;;4135355;28;20463;-74
2023/03/29 09:14:50;;;;;;;8.70;4.30;;;7.20;99.90;;;;;;4143285;28;21510;-75
2023/03/29 09:16:59;;;;;;;10.77;5.27;;;7.20;99.90;;;;;;4141446;28;20464;-75
2023/03/29 09:19:12;;;;;;;7.93;4.43;;;7.20;99.90;;;;;;4140177;28;20256;-75
2023/03/29 09:21:21;;;;;;;9.10;4.57;;;7.20;99.90;;;;;;4143848;28;20282;-75
2023/03/29 09:23:43;;;;;;;8.23;4.97;;;7.30;99.90;;;;;;4144732;28;20228;-75
2023/03/29 09:25:54;;;;;;;10.00;4.83;;;7.30;99.90;;;;;;4141491;28;20446;-74
2023/03/29 09:28:02;;;;;;;8.67;4.90;;;7.30;99.90;;;;;;4140902;28;20894;-75
2023/03/29 09:30:15;;;;;;;14.73;5.20;;;7.40;99.90;;;;;;4136084;28;20282;-74
2023/03/29 09:32:22;;;;;;;8.20;4.77;;;7.40;99.90;;;;;;4140600;28;20203;-75
2023/03/29 09:34:31;;;;;;;9.30;5.40;;;7.40;99.90;;;;;;4140081;28;20227;-75
2023/03/29 09:36:42;;;;;;;9.63;4.80;;;7.50;99.90;;;;;;4153088;28;20242;-75
2023/03/29 09:38:49;;;;;;;9.90;4.83;;;7.50;99.90;;;;;;4142375;28;20895;-75
2023/03/29 09:40:54;;;;;;;9.33;5.17;;;7.50;99.90;;;;;;4140212;28;20204;-74
2023/03/29 09:42:58;;;;;;;9.90;4.63;;;7.60;99.90;;;;;;4140267;28;20470;-74
2023/03/29 09:45:07;;;;;;;8.73;4.70;;;7.70;99.90;;;;;;4143609;28;20212;-75
2023/03/29 09:47:15;;;;;;;11.60;4.83;;;7.80;99.90;;;;;;4140830;28;20643;-75
2023/03/29 09:49:21;;;;;;;9.20;4.87;;;7.80;99.90;;;;;;4144827;28;20207;-74
2023/03/29 09:51:26;;;;;;;7.77;4.67;;;7.90;99.90;;;;;;4142535;28;20482;-75
2023/03/29 09:53:28;;;;;;;9.93;4.90;;;8.00;99.90;;;;;;4154722;28;20220;-75
2023/03/29 09:55:35;;;;;;;8.37;4.73;;;8.10;99.90;;;;;;4146659;28;20224;-74
2023/03/29 09:57:37;;;;;;;8.43;4.80;;;8.10;99.90;;;;;;4139447;28;20223;-75
2023/03/29 09:59:39;;;;;;;9.63;4.20;;;8.20;99.90;;;;;;4141298;28;20198;-75
2023/03/29 10:01:44;;;;;;;7.03;4.53;;;8.30;99.90;;;;;;4142703;28;20210;-74
2023/03/29 10:03:52;;;;;;;6.47;4.03;;;8.40;99.90;;;;;;4144743;28;20237;-74
2023/03/29 10:05:56;;;;;;;11.47;4.63;;;8.40;99.90;;;;;;4149339;28;20235;-74
2023/03/29 10:08:00;;;;;;;8.50;4.20;;;8.50;99.90;;;;;;4137822;28;20743;-74
2023/03/29 10:10:07;;;;;;;5.77;3.80;;;8.60;99.90;;;;;;4139091;28;20223;-74
2023/03/29 10:12:12;;;;;;;5.53;4.10;;;8.70;99.90;;;;;;4155594;28;20294;-74
2023/03/29 10:14:17;;;;;;;6.03;3.57;;;8.90;99.90;;;;;;4155930;28;20240;-74
2023/03/29 10:16:22;;;;;;;7.40;3.80;;;8.90;99.90;;;;;;4154688;28;20261;-74
2023/03/29 10:18:25;;;;;;;7.30;3.87;;;9.00;99.90;;;;;;4139006;28;20672;-74
2023/03/29 10:20:27;;;;;;;7.63;4.27;;;9.10;99.90;;;;;;4140914;28;20229;-74
2023/03/29 10:22:36;;;;;;;7.97;3.80;;;9.20;99.90;;;;;;4137129;28;20291;-74
2023/03/29 10:24:38;;;;;;;6.37;3.40;;;9.30;99.90;;;;;;4142387;28;20311;-74
2023/03/29 10:26:40;;;;;;;5.80;3.37;;;9.40;99.90;;;;;;4139904;28;20261;-75
2023/03/29 10:28:44;;;;;;;6.47;3.40;;;9.50;99.90;;;;;;4144792;28;20203;-74
2023/03/29 10:30:53;;;;;;;5.87;3.80;;;9.60;99.90;;;;;;4141533;28;20222;-74
2023/03/29 10:32:58;;;;;;;5.43;3.57;;;9.70;99.90;;;;;;4142457;28;20215;-75
2023/03/29 10:35:08;;;;;;;6.70;3.40;;;9.80;99.90;;;;;;4141728;28;20839;-75
2023/03/29 10:37:13;;;;;;;6.47;3.80;;;9.90;99.90;;;;;;4143730;28;20202;-74
2023/03/29 10:39:16;;;;;;;7.40;3.60;;;10.00;99.90;;;;;;4135361;28;20256;-75
2023/03/29 10:41:20;;;;;;;8.07;2.90;;;10.10;99.90;;;;;;4141668;28;20213;-75
2023/03/29 10:43:26;;;;;;;8.03;3.33;;;10.10;99.90;;;;;;4142234;28;20238;-75
2023/03/29 10:45:31;;;;;;;6.83;4.07;;;10.10;99.90;;;;;;4139399;28;20305;-75
2023/03/29 10:47:34;;;;;;;13.67;5.83;;;10.10;99.90;;;;;;4159032;28;20198;-74
2023/03/29 10:49:41;;;;;;;11.50;5.20;;;10.20;99.90;;;;;;4138172;28;20212;-74
2023/03/29 10:51:45;;;;;;;7.50;4.00;;;10.20;99.90;;;;;;4140051;28;20260;-74
2023/03/29 10:53:47;;;;;;;6.13;3.60;;;10.30;99.90;;;;;;4140877;28;20318;-74